sensor_id;sensor_type;location;lat;lon;timestamp;temperature;humidity
423;DHT22;198;48.752;9.180;2023-04-30T00:00:03;13.40;99.90
423;DHT22;198;48.752;9.180;2023-04-30T00:02:32;13.30;99.90
423;DHT22;198;48.752;9.180;2023-04-30T00:04:58;13.30;99.90
423;DHT22;198;48.752;9.180;2023-04-30T00:07:23;13.20;99.90
423;DHT22;198;48.752;9.180;2023-04-30T00:09:49;13.30;99.90
423;DHT22;198;48.752;9.180;2023-04-30T00:12:15;13.20;99.90
423;DHT22;198;48.752;9.180;2023-04-30T00:14:41;13.20;99.90
423;DHT22;198;48.752;9.180;2023-04-30T00:17:06;13.20;99.90
423;DHT22;198;48.752;9.180;2023-04-30T00:19:32;13.20;99.90
423;DHT22;198;48.752;9.180;2023-04-30T00:21:57;13.20;99.90
423;DHT22;198;48.752;9.180;2023-04-30T00:24:26;13.10;99.90
423;DHT22;198;48.752;9.180;2023-04-30T00:26:51;13.10;99.90
423;DHT22;198;48.752;9.180;2023-04-30T00:29:17;13.10;99.90
423;DHT22;198;48.752;9.180;2023-04-30T00:31:42;13.10;99.90
423;DHT22;198;48.752;9.180;2023-04-30T00:34:08;13.10;99.90
423;DHT22;198;48.752;9.180;2023-04-30T00:36:34;13.10;99.90
423;DHT22;198;48.752;9.180;2023-04-30T00:38:59;13.10;99.90
423;DHT22;198;48.752;9.180;2023-04-30T00:41:26;13.10;99.90
423;DHT22;198;48.752;9.180;2023-04-30T00:43:52;13.00;99.90
423;DHT22;198;48.752;9.180;2023-04-30T00:46:17;13.10;99.90
423;DHT22;198;48.752;9.180;2023-04-30T00:48:43;13.10;99.90
423;DHT22;198;48.752;9.180;2023-04-30T00:51:08;13.10;99.90
423;DHT22;198;48.752;9.180;2023-04-30T00:53:34;13.10;99.90
423;DHT22;198;48.752;9.180;2023-04-30T00:56:00;13.10;99.90
423;DHT22;198;48.752;9.180;2023-04-30T00:58:26;13.10;99.90
423;DHT22;198;48.752;9.180;2023-04-30T01:00:52;13.10;99.90
423;DHT22;198;48.752;9.180;2023-04-30T01:03:17;13.10;99.90
423;DHT22;198;48.752;9.180;2023-04-30T01:05:43;13.10;99.90
423;DHT22;198;48.752;9.180;2023-04-30T01:08:09;13.10;99.90
423;DHT22;198;48.752;9.180;2023-04-30T01:10:44;13.10;99.90
423;DHT22;198;48.752;9.180;2023-04-30T01:13:19;13.00;99.90
423;DHT22;198;48.752;9.180;2023-04-30T01:16:10;13.00;99.90
423;DHT22;198;48.752;9.180;2023-04-30T01:18:44;13.00;99.90
423;DHT22;198;48.752;9.180;2023-04-30T01:21:11;13.00;99.90
423;DHT22;198;48.752;9.180;2023-04-30T01:23:54;13.00;99.90
423;DHT22;198;48.752;9.180;2023-04-30T01:29:29;12.90;99.90
423;DHT22;198;48.752;9.180;2023-04-30T01:31:56;12.90;99.90
423;DHT22;198;48.752;9.180;2023-04-30T01:34:22;12.90;99.90
423;DHT22;198;48.752;9.180;2023-04-30T01:42:19;12.70;99.90
423;DHT22;198;48.752;9.180;2023-04-30T01:47:47;12.70;99.90
423;DHT22;198;48.752;9.180;2023-04-30T01:52:53;12.70;99.90
423;DHT22;198;48.752;9.180;2023-04-30T01:55:44;12.70;99.90
423;DHT22;198;48.752;9.180;2023-04-30T01:58:14;12.70;99.90
423;DHT22;198;48.752;9.180;2023-04-30T02:00:40;12.60;99.90
423;DHT22;198;48.752;9.180;2023-04-30T02:03:06;12.60;99.90
423;DHT22;198;48.752;9.180;2023-04-30T02:05:32;12.60;99.90
423;DHT22;198;48.752;9.180;2023-04-30T02:07:57;12.60;99.90
423;DHT22;198;48.752;9.180;2023-04-30T02:10:24;12.60;99.90
423;DHT22;198;48.752;9.180;2023-04-30T02:12:51;12.60;99.90
423;DHT22;198;48.752;9.180;2023-04-30T02:15:16;12.50;99.90
423;DHT22;198;48.752;9.180;2023-04-30T02:17:42;12.50;99.90
423;DHT22;198;48.752;9.180;2023-04-30T02:20:08;12.50;99.90
423;DHT22;198;48.752;9.180;2023-04-30T02:22:35;12.50;99.90
423;DHT22;198;48.752;9.180;2023-04-30T02:25:01;12.50;99.90
423;DHT22;198;48.752;9.180;2023-04-30T02:27:29;12.50;99.90
423;DHT22;198;48.752;9.180;2023-04-30T02:29:55;12.50;99.90
423;DHT22;198;48.752;9.180;2023-04-30T02:32:21;12.50;99.90
423;DHT22;198;48.752;9.180;2023-04-30T02:34:46;12.50;99.90
423;DHT22;198;48.752;9.180;2023-04-30T02:37:12;12.40;99.90
423;DHT22;198;48.752;9.180;2023-04-30T02:39:38;12.40;99.90
423;DHT22;198;48.752;9.180;2023-04-30T02:42:03;12.30;99.90
423;DHT22;198;48.752;9.180;2023-04-30T02:44:31;12.30;99.90
423;DHT22;198;48.752;9.180;2023-04-30T02:46:56;12.20;99.90
423;DHT22;198;48.752;9.180;2023-04-30T02:49:22;12.20;99.90
423;DHT22;198;48.752;9.180;2023-04-30T02:51:47;12.20;99.90
423;DHT22;198;48.752;9.180;2023-04-30T02:54:13;12.20;99.90
423;DHT22;198;48.752;9.180;2023-04-30T02:56:38;12.20;99.90
423;DHT22;198;48.752;9.180;2023-04-30T02:59:04;12.20;99.90
423;DHT22;198;48.752;9.180;2023-04-30T03:01:29;12.10;99.90
423;DHT22;198;48.752;9.180;2023-04-30T03:03:55;12.10;99.90
423;DHT22;198;48.752;9.180;2023-04-30T03:06:20;12.10;99.90
423;DHT22;198;48.752;9.180;2023-04-30T03:08:46;12.10;99.90
423;DHT22;198;48.752;9.180;2023-04-30T03:11:12;12.10;99.90
423;DHT22;198;48.752;9.180;2023-04-30T03:13:38;12.00;99.90
423;DHT22;198;48.752;9.180;2023-04-30T03:16:03;12.00;99.90
423;DHT22;198;48.752;9.180;2023-04-30T03:18:29;12.00;99.90
423;DHT22;198;48.752;9.180;2023-04-30T03:20:55;12.00;99.90
423;DHT22;198;48.752;9.180;2023-04-30T03:23:22;12.00;99.90
423;DHT22;198;48.752;9.180;2023-04-30T03:25:47;12.00;99.90
423;DHT22;198;48.752;9.180;2023-04-30T03:28:13;12.00;99.90
423;DHT22;198;48.752;9.180;2023-04-30T03:30:39;11.90;99.90
423;DHT22;198;48.752;9.180;2023-04-30T03:33:05;12.00;99.90
423;DHT22;198;48.752;9.180;2023-04-30T03:35:33;11.90;99.90
423;DHT22;198;48.752;9.180;2023-04-30T03:38:02;11.90;99.90
423;DHT22;198;48.752;9.180;2023-04-30T03:40:27;11.90;99.90
423;DHT22;198;48.752;9.180;2023-04-30T03:42:53;11.90;99.90
423;DHT22;198;48.752;9.180;2023-04-30T03:45:18;11.90;99.90
423;DHT22;198;48.752;9.180;2023-04-30T03:47:44;11.90;99.90
423;DHT22;198;48.752;9.180;2023-04-30T03:50:10;11.90;99.90
423;DHT22;198;48.752;9.180;2023-04-30T03:52:35;11.90;99.90
423;DHT22;198;48.752;9.180;2023-04-30T03:55:02;11.90;99.90
423;DHT22;198;48.752;9.180;2023-04-30T03:57:28;11.90;99.90
423;DHT22;198;48.752;9.180;2023-04-30T03:59:53;11.90;99.90
423;DHT22;198;48.752;9.180;2023-04-30T04:02:19;11.90;99.90
423;DHT22;198;48.752;9.180;2023-04-30T04:04:46;11.90;99.90
423;DHT22;198;48.752;9.180;2023-04-30T04:07:11;11.90;99.90
423;DHT22;198;48.752;9.180;2023-04-30T04:09:37;11.90;99.90
423;DHT22;198;48.752;9.180;2023-04-30T04:12:02;11.90;99.90
423;DHT22;198;48.752;9.180;2023-04-30T04:14:28;11.90;99.90
423;DHT22;198;48.752;9.180;2023-04-30T04:16:53;11.90;99.90
423;DHT22;198;48.752;9.180;2023-04-30T04:19:19;11.90;99.90
423;DHT22;198;48.752;9.180;2023-04-30T04:21:45;12.00;99.90
423;DHT22;198;48.752;9.180;2023-04-30T04:24:10;11.90;99.90
423;DHT22;198;48.752;9.180;2023-04-30T04:26:36;12.00;99.90
423;DHT22;198;48.752;9.180;2023-04-30T04:29:03;12.00;99.90
423;DHT22;198;48.752;9.180;2023-04-30T04:31:34;12.00;99.90
423;DHT22;198;48.752;9.180;2023-04-30T04:34:01;12.00;99.90
423;DHT22;198;48.752;9.180;2023-04-30T04:36:27;12.00;99.90
423;DHT22;198;48.752;9.180;2023-04-30T04:38:53;12.00;99.90
423;DHT22;198;48.752;9.180;2023-04-30T04:41:20;11.90;99.90
423;DHT22;198;48.752;9.180;2023-04-30T04:43:45;11.90;99.90
423;DHT22;198;48.752;9.180;2023-04-30T04:46:11;12.00;99.90
423;DHT22;198;48.752;9.180;2023-04-30T04:48:40;12.00;99.90
423;DHT22;198;48.752;9.180;2023-04-30T04:51:06;12.00;99.90
423;DHT22;198;48.752;9.180;2023-04-30T04:53:32;12.00;99.90
423;DHT22;198;48.752;9.180;2023-04-30T04:55:57;12.00;99.90
423;DHT22;198;48.752;9.180;2023-04-30T04:58:22;12.10;99.90
423;DHT22;198;48.752;9.180;2023-04-30T05:00:48;12.10;99.90
423;DHT22;198;48.752;9.180;2023-04-30T05:03:13;12.10;99.90
423;DHT22;198;48.752;9.180;2023-04-30T05:05:39;12.10;99.90
423;DHT22;198;48.752;9.180;2023-04-30T05:08:05;12.10;99.90
423;DHT22;198;48.752;9.180;2023-04-30T05:10:30;12.10;99.90
423;DHT22;198;48.752;9.180;2023-04-30T05:12:56;12.00;99.90
423;DHT22;198;48.752;9.180;2023-04-30T05:15:21;12.00;99.90
423;DHT22;198;48.752;9.180;2023-04-30T05:17:47;12.00;99.90
423;DHT22;198;48.752;9.180;2023-04-30T05:20:12;12.00;99.90
423;DHT22;198;48.752;9.180;2023-04-30T05:22:38;12.00;99.90
423;DHT22;198;48.752;9.180;2023-04-30T05:25:04;12.10;99.90
423;DHT22;198;48.752;9.180;2023-04-30T05:27:30;12.20;99.90
423;DHT22;198;48.752;9.180;2023-04-30T05:29:55;12.30;99.90
423;DHT22;198;48.752;9.180;2023-04-30T05:32:21;12.30;99.90
423;DHT22;198;48.752;9.180;2023-04-30T05:34:47;12.30;99.90
423;DHT22;198;48.752;9.180;2023-04-30T05:37:12;12.30;99.90
423;DHT22;198;48.752;9.180;2023-04-30T05:39:39;12.30;99.90
423;DHT22;198;48.752;9.180;2023-04-30T05:42:04;12.20;99.90
423;DHT22;198;48.752;9.180;2023-04-30T05:44:30;12.20;99.90
423;DHT22;198;48.752;9.180;2023-04-30T05:46:56;12.30;99.90
423;DHT22;198;48.752;9.180;2023-04-30T05:49:21;12.40;99.90
423;DHT22;198;48.752;9.180;2023-04-30T05:51:47;12.50;99.90
423;DHT22;198;48.752;9.180;2023-04-30T05:54:12;12.70;99.90
423;DHT22;198;48.752;9.180;2023-04-30T05:56:38;12.80;99.90
423;DHT22;198;48.752;9.180;2023-04-30T05:59:03;12.90;99.90
423;DHT22;198;48.752;9.180;2023-04-30T06:01:28;12.90;99.90
423;DHT22;198;48.752;9.180;2023-04-30T06:03:54;12.90;99.90
423;DHT22;198;48.752;9.180;2023-04-30T06:06:20;13.00;99.90
423;DHT22;198;48.752;9.180;2023-04-30T06:08:45;13.00;99.90
423;DHT22;198;48.752;9.180;2023-04-30T06:11:11;13.00;99.90
423;DHT22;198;48.752;9.180;2023-04-30T06:13:38;13.20;99.90
423;DHT22;198;48.752;9.180;2023-04-30T06:16:04;13.40;99.90
423;DHT22;198;48.752;9.180;2023-04-30T06:18:29;13.30;99.90
423;DHT22;198;48.752;9.180;2023-04-30T06:20:55;13.40;99.90
423;DHT22;198;48.752;9.180;2023-04-30T06:23:20;13.50;99.90
423;DHT22;198;48.752;9.180;2023-04-30T06:25:46;13.60;99.90
423;DHT22;198;48.752;9.180;2023-04-30T06:28:12;13.60;99.90
423;DHT22;198;48.752;9.180;2023-04-30T06:30:37;13.60;99.90
423;DHT22;198;48.752;9.180;2023-04-30T06:33:03;13.60;99.90
423;DHT22;198;48.752;9.180;2023-04-30T06:35:28;13.60;99.90
423;DHT22;198;48.752;9.180;2023-04-30T06:37:54;13.80;99.90
423;DHT22;198;48.752;9.180;2023-04-30T06:40:19;14.00;99.90
423;DHT22;198;48.752;9.180;2023-04-30T06:42:45;14.20;99.90
423;DHT22;198;48.752;9.180;2023-04-30T06:45:11;14.40;99.90
423;DHT22;198;48.752;9.180;2023-04-30T06:47:39;14.60;99.90
423;DHT22;198;48.752;9.180;2023-04-30T06:50:07;14.80;99.90
423;DHT22;198;48.752;9.180;2023-04-30T06:52:33;15.00;99.90
423;DHT22;198;48.752;9.180;2023-04-30T06:54:59;15.30;99.90
423;DHT22;198;48.752;9.180;2023-04-30T06:57:25;15.40;99.90
423;DHT22;198;48.752;9.180;2023-04-30T06:59:52;15.50;99.90
423;DHT22;198;48.752;9.180;2023-04-30T07:02:17;15.50;99.90
423;DHT22;198;48.752;9.180;2023-04-30T07:04:43;15.60;99.90
423;DHT22;198;48.752;9.180;2023-04-30T07:07:08;15.60;99.90
423;DHT22;198;48.752;9.180;2023-04-30T07:09:34;15.60;99.90
423;DHT22;198;48.752;9.180;2023-04-30T07:12:01;15.60;99.90
423;DHT22;198;48.752;9.180;2023-04-30T07:14:26;15.50;99.90
423;DHT22;198;48.752;9.180;2023-04-30T07:16:52;15.40;99.90
423;DHT22;198;48.752;9.180;2023-04-30T07:19:18;15.30;99.90
423;DHT22;198;48.752;9.180;2023-04-30T07:21:44;15.30;99.90
423;DHT22;198;48.752;9.180;2023-04-30T07:24:09;15.40;99.90
423;DHT22;198;48.752;9.180;2023-04-30T07:26:35;15.40;99.90
423;DHT22;198;48.752;9.180;2023-04-30T07:29:01;15.50;99.90
423;DHT22;198;48.752;9.180;2023-04-30T07:31:26;15.50;99.90
423;DHT22;198;48.752;9.180;2023-04-30T07:33:52;15.60;99.90
423;DHT22;198;48.752;9.180;2023-04-30T07:36:19;15.60;99.90
423;DHT22;198;48.752;9.180;2023-04-30T07:38:45;15.50;99.90
423;DHT22;198;48.752;9.180;2023-04-30T07:41:12;15.30;99.90
423;DHT22;198;48.752;9.180;2023-04-30T07:43:38;15.20;99.90
423;DHT22;198;48.752;9.180;2023-04-30T07:46:03;15.20;99.90
423;DHT22;198;48.752;9.180;2023-04-30T07:48:29;15.20;99.90
423;DHT22;198;48.752;9.180;2023-04-30T07:50:55;15.30;99.90
423;DHT22;198;48.752;9.180;2023-04-30T07:53:22;15.30;99.90
423;DHT22;198;48.752;9.180;2023-04-30T07:55:48;15.40;99.90
423;DHT22;198;48.752;9.180;2023-04-30T07:58:13;15.40;99.90
423;DHT22;198;48.752;9.180;2023-04-30T08:00:39;15.50;99.90
423;DHT22;198;48.752;9.180;2023-04-30T08:03:04;15.40;99.90
423;DHT22;198;48.752;9.180;2023-04-30T08:05:30;15.60;99.90
423;DHT22;198;48.752;9.180;2023-04-30T08:07:56;15.60;99.90
423;DHT22;198;48.752;9.180;2023-04-30T08:10:21;15.80;99.40
423;DHT22;198;48.752;9.180;2023-04-30T08:12:47;16.10;99.90
423;DHT22;198;48.752;9.180;2023-04-30T08:15:12;16.10;98.60
423;DHT22;198;48.752;9.180;2023-04-30T08:17:38;16.30;96.10
423;DHT22;198;48.752;9.180;2023-04-30T08:20:04;16.40;94.00
423;DHT22;198;48.752;9.180;2023-04-30T08:22:30;16.30;94.40
423;DHT22;198;48.752;9.180;2023-04-30T08:24:55;16.10;94.60
423;DHT22;198;48.752;9.180;2023-04-30T08:27:22;16.10;94.70
423;DHT22;198;48.752;9.180;2023-04-30T08:29:47;16.30;93.90
423;DHT22;198;48.752;9.180;2023-04-30T08:32:13;16.60;94.00
423;DHT22;198;48.752;9.180;2023-04-30T08:34:38;16.90;92.00
423;DHT22;198;48.752;9.180;2023-04-30T08:37:08;17.10;91.50
423;DHT22;198;48.752;9.180;2023-04-30T08:39:33;17.30;91.70
423;DHT22;198;48.752;9.180;2023-04-30T08:42:01;17.40;90.10
423;DHT22;198;48.752;9.180;2023-04-30T08:44:29;17.40;89.10
423;DHT22;198;48.752;9.180;2023-04-30T08:49:24;17.40;90.10
423;DHT22;198;48.752;9.180;2023-04-30T08:51:50;17.50;85.80
423;DHT22;198;48.752;9.180;2023-04-30T08:54:17;17.60;83.40
423;DHT22;198;48.752;9.180;2023-04-30T08:56:46;17.60;82.40
423;DHT22;198;48.752;9.180;2023-04-30T08:59:12;17.70;80.00
423;DHT22;198;48.752;9.180;2023-04-30T09:01:38;18.10;74.00
423;DHT22;198;48.752;9.180;2023-04-30T09:04:04;18.30;72.90
423;DHT22;198;48.752;9.180;2023-04-30T09:06:29;18.30;69.40
423;DHT22;198;48.752;9.180;2023-04-30T09:08:55;18.30;69.80
423;DHT22;198;48.752;9.180;2023-04-30T09:13:53;18.20;68.60
423;DHT22;198;48.752;9.180;2023-04-30T09:16:20;18.30;70.70
423;DHT22;198;48.752;9.180;2023-04-30T09:18:45;18.50;72.30
423;DHT22;198;48.752;9.180;2023-04-30T09:21:12;18.80;69.00
423;DHT22;198;48.752;9.180;2023-04-30T09:23:53;19.10;64.00
423;DHT22;198;48.752;9.180;2023-04-30T09:26:46;19.20;63.10
423;DHT22;198;48.752;9.180;2023-04-30T09:29:12;19.00;66.10
423;DHT22;198;48.752;9.180;2023-04-30T09:31:40;19.10;63.80
423;DHT22;198;48.752;9.180;2023-04-30T09:34:05;19.00;64.80
423;DHT22;198;48.752;9.180;2023-04-30T09:36:31;19.00;63.90
423;DHT22;198;48.752;9.180;2023-04-30T09:39:07;19.00;60.20
423;DHT22;198;48.752;9.180;2023-04-30T09:41:36;19.00;59.70
423;DHT22;198;48.752;9.180;2023-04-30T09:44:01;19.00;57.80
423;DHT22;198;48.752;9.180;2023-04-30T09:46:34;19.00;57.70
423;DHT22;198;48.752;9.180;2023-04-30T09:49:04;19.10;57.30
423;DHT22;198;48.752;9.180;2023-04-30T09:51:30;19.30;57.70
423;DHT22;198;48.752;9.180;2023-04-30T09:53:56;19.40;58.80
423;DHT22;198;48.752;9.180;2023-04-30T09:56:23;19.40;58.70
423;DHT22;198;48.752;9.180;2023-04-30T09:58:54;19.30;56.00
423;DHT22;198;48.752;9.180;2023-04-30T10:01:22;19.20;58.50
423;DHT22;198;48.752;9.180;2023-04-30T10:03:49;19.20;58.50
423;DHT22;198;48.752;9.180;2023-04-30T10:06:15;19.10;59.00
423;DHT22;198;48.752;9.180;2023-04-30T10:08:48;19.10;57.80
423;DHT22;198;48.752;9.180;2023-04-30T10:11:18;19.10;57.90
423;DHT22;198;48.752;9.180;2023-04-30T10:14:00;19.20;58.30
423;DHT22;198;48.752;9.180;2023-04-30T10:17:14;19.20;57.00
423;DHT22;198;48.752;9.180;2023-04-30T10:19:42;19.10;56.80
423;DHT22;198;48.752;9.180;2023-04-30T10:22:09;19.40;55.10
423;DHT22;198;48.752;9.180;2023-04-30T10:24:35;19.70;53.70
423;DHT22;198;48.752;9.180;2023-04-30T10:27:02;20.00;53.80
423;DHT22;198;48.752;9.180;2023-04-30T10:29:28;20.30;54.20
423;DHT22;198;48.752;9.180;2023-04-30T10:31:53;20.70;52.10
423;DHT22;198;48.752;9.180;2023-04-30T10:34:48;20.80;51.80
423;DHT22;198;48.752;9.180;2023-04-30T10:37:38;20.80;53.10
423;DHT22;198;48.752;9.180;2023-04-30T10:40:07;20.50;53.90
423;DHT22;198;48.752;9.180;2023-04-30T10:42:34;20.50;54.50
423;DHT22;198;48.752;9.180;2023-04-30T10:45:01;20.80;51.00
423;DHT22;198;48.752;9.180;2023-04-30T10:47:28;21.00;53.10
423;DHT22;198;48.752;9.180;2023-04-30T10:50:04;20.90;52.00
423;DHT22;198;48.752;9.180;2023-04-30T10:52:32;20.90;51.80
423;DHT22;198;48.752;9.180;2023-04-30T10:54:58;20.70;53.70
423;DHT22;198;48.752;9.180;2023-04-30T10:57:28;20.50;51.50
423;DHT22;198;48.752;9.180;2023-04-30T11:02:45;20.70;52.50
423;DHT22;198;48.752;9.180;2023-04-30T11:05:13;21.00;53.30
423;DHT22;198;48.752;9.180;2023-04-30T11:07:56;20.80;50.00
423;DHT22;198;48.752;9.180;2023-04-30T11:10:24;20.50;52.60
423;DHT22;198;48.752;9.180;2023-04-30T11:12:51;20.30;52.90
423;DHT22;198;48.752;9.180;2023-04-30T11:15:25;20.00;53.00
423;DHT22;198;48.752;9.180;2023-04-30T11:17:55;20.10;53.90
423;DHT22;198;48.752;9.180;2023-04-30T11:20:23;20.20;53.90
423;DHT22;198;48.752;9.180;2023-04-30T11:23:15;20.40;54.80
423;DHT22;198;48.752;9.180;2023-04-30T11:25:43;20.50;53.00
423;DHT22;198;48.752;9.180;2023-04-30T11:28:19;20.30;53.00
423;DHT22;198;48.752;9.180;2023-04-30T11:30:52;20.10;53.40
423;DHT22;198;48.752;9.180;2023-04-30T11:33:18;19.90;53.70
423;DHT22;198;48.752;9.180;2023-04-30T11:35:44;20.10;52.30
423;DHT22;198;48.752;9.180;2023-04-30T11:38:13;20.20;53.70
423;DHT22;198;48.752;9.180;2023-04-30T11:40:39;20.30;52.20
423;DHT22;198;48.752;9.180;2023-04-30T11:43:05;20.20;51.30
423;DHT22;198;48.752;9.180;2023-04-30T11:45:31;20.00;51.80
423;DHT22;198;48.752;9.180;2023-04-30T11:47:56;20.00;52.90
423;DHT22;198;48.752;9.180;2023-04-30T11:50:26;20.00;53.10
423;DHT22;198;48.752;9.180;2023-04-30T11:52:55;20.40;53.10
423;DHT22;198;48.752;9.180;2023-04-30T11:55:25;20.60;52.10
423;DHT22;198;48.752;9.180;2023-04-30T11:57:52;20.70;51.50
423;DHT22;198;48.752;9.180;2023-04-30T12:00:24;20.80;51.00
423;DHT22;198;48.752;9.180;2023-04-30T12:02:49;21.00;49.60
423;DHT22;198;48.752;9.180;2023-04-30T12:05:20;21.20;49.10
423;DHT22;198;48.752;9.180;2023-04-30T12:10:20;22.00;48.50
423;DHT22;198;48.752;9.180;2023-04-30T12:12:47;22.10;49.50
423;DHT22;198;48.752;9.180;2023-04-30T12:15:18;22.10;46.50
423;DHT22;198;48.752;9.180;2023-04-30T12:17:45;21.90;47.90
423;DHT22;198;48.752;9.180;2023-04-30T12:20:12;21.60;49.50
423;DHT22;198;48.752;9.180;2023-04-30T12:22:40;21.40;49.60
423;DHT22;198;48.752;9.180;2023-04-30T12:25:17;21.40;49.40
423;DHT22;198;48.752;9.180;2023-04-30T12:27:48;21.70;50.30
423;DHT22;198;48.752;9.180;2023-04-30T12:30:14;22.10;47.80
423;DHT22;198;48.752;9.180;2023-04-30T12:32:44;22.10;49.30
423;DHT22;198;48.752;9.180;2023-04-30T12:35:15;21.80;46.60
423;DHT22;198;48.752;9.180;2023-04-30T12:37:46;21.60;47.20
423;DHT22;198;48.752;9.180;2023-04-30T12:40:13;21.00;48.70
423;DHT22;198;48.752;9.180;2023-04-30T12:42:41;20.90;47.40
423;DHT22;198;48.752;9.180;2023-04-30T12:45:08;20.80;50.70
423;DHT22;198;48.752;9.180;2023-04-30T12:47:40;20.60;50.60
423;DHT22;198;48.752;9.180;2023-04-30T12:52:33;20.50;50.60
423;DHT22;198;48.752;9.180;2023-04-30T12:55:16;20.50;52.40
423;DHT22;198;48.752;9.180;2023-04-30T12:58:12;20.50;51.90
423;DHT22;198;48.752;9.180;2023-04-30T13:00:42;20.70;51.70
423;DHT22;198;48.752;9.180;2023-04-30T13:03:08;21.00;51.30
423;DHT22;198;48.752;9.180;2023-04-30T13:05:34;21.10;50.70
423;DHT22;198;48.752;9.180;2023-04-30T13:08:03;21.50;50.10
423;DHT22;198;48.752;9.180;2023-04-30T13:10:31;21.80;49.60
423;DHT22;198;48.752;9.180;2023-04-30T13:12:57;22.00;49.70
423;DHT22;198;48.752;9.180;2023-04-30T13:15:24;22.40;49.90
423;DHT22;198;48.752;9.180;2023-04-30T13:17:49;24.70;48.30
423;DHT22;198;48.752;9.180;2023-04-30T13:20:15;27.00;43.60
423;DHT22;198;48.752;9.180;2023-04-30T13:22:40;28.00;42.80
423;DHT22;198;48.752;9.180;2023-04-30T13:25:06;28.40;41.00
423;DHT22;198;48.752;9.180;2023-04-30T13:27:32;28.50;38.80
423;DHT22;198;48.752;9.180;2023-04-30T13:29:58;27.70;38.90
423;DHT22;198;48.752;9.180;2023-04-30T13:32:24;26.50;39.90
423;DHT22;198;48.752;9.180;2023-04-30T13:34:49;26.20;38.90
423;DHT22;198;48.752;9.180;2023-04-30T13:37:19;26.10;40.10
423;DHT22;198;48.752;9.180;2023-04-30T13:39:45;26.40;38.60
423;DHT22;198;48.752;9.180;2023-04-30T13:42:10;26.40;39.10
423;DHT22;198;48.752;9.180;2023-04-30T13:44:36;26.00;38.00
423;DHT22;198;48.752;9.180;2023-04-30T13:47:03;25.10;40.40
423;DHT22;198;48.752;9.180;2023-04-30T13:49:28;24.20;41.00
423;DHT22;198;48.752;9.180;2023-04-30T13:51:54;23.60;43.30
423;DHT22;198;48.752;9.180;2023-04-30T13:54:19;23.50;43.60
423;DHT22;198;48.752;9.180;2023-04-30T13:56:45;23.40;43.80
423;DHT22;198;48.752;9.180;2023-04-30T13:59:10;23.20;43.80
423;DHT22;198;48.752;9.180;2023-04-30T14:01:36;23.20;43.20
423;DHT22;198;48.752;9.180;2023-04-30T14:04:01;22.90;44.80
423;DHT22;198;48.752;9.180;2023-04-30T14:06:27;22.20;44.60
423;DHT22;198;48.752;9.180;2023-04-30T14:08:53;22.10;45.50
423;DHT22;198;48.752;9.180;2023-04-30T14:11:19;22.00;44.70
423;DHT22;198;48.752;9.180;2023-04-30T14:13:45;21.80;45.00
423;DHT22;198;48.752;9.180;2023-04-30T14:16:10;21.70;44.30
423;DHT22;198;48.752;9.180;2023-04-30T14:18:36;21.80;44.40
423;DHT22;198;48.752;9.180;2023-04-30T14:21:01;21.80;45.30
423;DHT22;198;48.752;9.180;2023-04-30T14:23:27;22.20;44.70
423;DHT22;198;48.752;9.180;2023-04-30T14:25:53;22.70;43.60
423;DHT22;198;48.752;9.180;2023-04-30T14:28:19;22.40;44.00
423;DHT22;198;48.752;9.180;2023-04-30T14:30:44;22.20;45.60
423;DHT22;198;48.752;9.180;2023-04-30T14:33:10;22.10;45.00
423;DHT22;198;48.752;9.180;2023-04-30T14:35:37;21.90;44.30
423;DHT22;198;48.752;9.180;2023-04-30T14:38:02;21.90;44.60
423;DHT22;198;48.752;9.180;2023-04-30T14:40:28;21.80;45.50
423;DHT22;198;48.752;9.180;2023-04-30T14:42:53;21.90;46.00
423;DHT22;198;48.752;9.180;2023-04-30T14:45:19;22.00;45.20
423;DHT22;198;48.752;9.180;2023-04-30T14:47:45;21.70;46.20
423;DHT22;198;48.752;9.180;2023-04-30T14:50:10;21.70;45.60
423;DHT22;198;48.752;9.180;2023-04-30T14:52:36;22.00;46.90
423;DHT22;198;48.752;9.180;2023-04-30T14:55:01;22.20;44.80
423;DHT22;198;48.752;9.180;2023-04-30T14:57:27;22.60;44.30
423;DHT22;198;48.752;9.180;2023-04-30T14:59:53;23.00;45.10
423;DHT22;198;48.752;9.180;2023-04-30T15:02:21;23.20;43.80
423;DHT22;198;48.752;9.180;2023-04-30T15:04:47;23.50;43.90
423;DHT22;198;48.752;9.180;2023-04-30T15:07:12;23.80;43.60
423;DHT22;198;48.752;9.180;2023-04-30T15:09:38;24.40;42.50
423;DHT22;198;48.752;9.180;2023-04-30T15:12:04;24.50;42.70
423;DHT22;198;48.752;9.180;2023-04-30T15:14:30;25.00;41.60
423;DHT22;198;48.752;9.180;2023-04-30T15:16:55;25.20;41.00
423;DHT22;198;48.752;9.180;2023-04-30T15:19:21;25.40;40.60
423;DHT22;198;48.752;9.180;2023-04-30T15:21:47;25.50;40.00
423;DHT22;198;48.752;9.180;2023-04-30T15:24:12;25.80;40.80
423;DHT22;198;48.752;9.180;2023-04-30T15:26:38;26.40;40.30
423;DHT22;198;48.752;9.180;2023-04-30T15:29:03;26.80;40.20
423;DHT22;198;48.752;9.180;2023-04-30T15:31:29;27.20;37.80
423;DHT22;198;48.752;9.180;2023-04-30T15:33:56;27.20;37.30
423;DHT22;198;48.752;9.180;2023-04-30T15:36:22;27.20;38.50
423;DHT22;198;48.752;9.180;2023-04-30T15:38:47;27.30;38.60
423;DHT22;198;48.752;9.180;2023-04-30T15:41:13;27.20;38.50
423;DHT22;198;48.752;9.180;2023-04-30T15:43:38;27.10;38.60
423;DHT22;198;48.752;9.180;2023-04-30T15:46:04;26.80;36.90
423;DHT22;198;48.752;9.180;2023-04-30T15:48:30;26.30;38.40
423;DHT22;198;48.752;9.180;2023-04-30T15:50:55;26.40;37.50
423;DHT22;198;48.752;9.180;2023-04-30T15:53:21;26.30;38.00
423;DHT22;198;48.752;9.180;2023-04-30T15:55:47;25.70;38.30
423;DHT22;198;48.752;9.180;2023-04-30T15:58:13;25.20;38.20
423;DHT22;198;48.752;9.180;2023-04-30T16:00:40;24.90;40.50
423;DHT22;198;48.752;9.180;2023-04-30T16:03:06;24.70;39.00
423;DHT22;198;48.752;9.180;2023-04-30T16:05:32;24.20;39.80
423;DHT22;198;48.752;9.180;2023-04-30T16:07:59;23.70;40.10
423;DHT22;198;48.752;9.180;2023-04-30T16:10:25;23.10;41.70
423;DHT22;198;48.752;9.180;2023-04-30T16:12:50;22.50;42.20
423;DHT22;198;48.752;9.180;2023-04-30T16:15:16;22.10;42.70
423;DHT22;198;48.752;9.180;2023-04-30T16:17:41;21.60;43.00
423;DHT22;198;48.752;9.180;2023-04-30T16:20:07;21.50;43.20
423;DHT22;198;48.752;9.180;2023-04-30T16:22:33;21.40;44.30
423;DHT22;198;48.752;9.180;2023-04-30T16:24:58;21.30;44.30
423;DHT22;198;48.752;9.180;2023-04-30T16:27:24;21.10;44.80
423;DHT22;198;48.752;9.180;2023-04-30T16:29:49;21.00;45.10
423;DHT22;198;48.752;9.180;2023-04-30T16:32:15;20.90;45.30
423;DHT22;198;48.752;9.180;2023-04-30T16:34:41;20.80;45.80
423;DHT22;198;48.752;9.180;2023-04-30T16:37:06;20.60;46.20
423;DHT22;198;48.752;9.180;2023-04-30T16:39:32;20.40;46.30
423;DHT22;198;48.752;9.180;2023-04-30T16:41:57;20.20;46.40
423;DHT22;198;48.752;9.180;2023-04-30T16:44:23;20.00;46.40
423;DHT22;198;48.752;9.180;2023-04-30T16:46:48;19.90;47.80
423;DHT22;198;48.752;9.180;2023-04-30T16:49:15;19.50;46.50
423;DHT22;198;48.752;9.180;2023-04-30T16:51:40;19.30;47.50
423;DHT22;198;48.752;9.180;2023-04-30T16:54:07;19.10;48.10
423;DHT22;198;48.752;9.180;2023-04-30T16:56:32;19.00;48.30
423;DHT22;198;48.752;9.180;2023-04-30T16:58:58;18.90;48.50